• Join FlightAware (Why Join?)
  • Login
  • US Flag 
01:29AM EDT


 

Airport Tracker/Info


-or-


 

Live Flight TrackerFlight Track Log ✈ N506SA ✈ 01-May-2013 ✈ KSAV - SKBO / BOG

Flight Track Log - Related Links

Times and Time Zones

All times are in EDT time to prevent confusion due to time zone crossing. See the N506SA flight status page for this flight to view local times or setup timezone preferences in your user account.

Time Position Orientation Groundspeed Altitude Reporting Facility
EDT Latitude Longitude Course Direction KTS MPH feet Rate Location/Type
12:23PM 32.0061 -81.1336 180° South 259 298 9,000  Level Jacksonville Center
12:24PM 31.9225 -81.1375 182° South 296 341 10,500 2,160 Climbing Jacksonville Center
12:25PM 31.8350 -81.1442 184° South 338 389 13,400 3,300 Climbing Jacksonville Center
12:26PM 31.7225 -81.1511 183° South 368 423 17,100 3,180 Climbing Jacksonville Center
12:27PM 31.4045 -81.1667 180° South  Level FlightAware Approximate
12:27PM 31.6097 -81.1581 183° South 403 464 19,800  Level Jacksonville Center
12:28PM 31.2849 -81.1667 180° South  Level FlightAware Approximate
12:28PM 31.5053 -81.1625 182° South 403 464 22,600  Level Jacksonville Center
12:29PM 31.3739 -81.1722 184° South 419 482 25,300 2,700 Climbing Jacksonville Center
12:30PM 31.2614 -81.1742 181° South 440 506 28,000 2,220 Climbing Jacksonville Center
12:31PM 31.1339 -81.1694 178° South 446 513 29,800 2,040 Climbing Jacksonville Center
12:32PM 31.0044 -81.1644 178° South 463 533 32,100 2,640 Climbing Jacksonville Center
12:33PM 30.8750 -81.1644 180° South 469 540 35,100 3,120 Climbing Jacksonville Center
12:34PM 30.7494 -81.1594 178° South 463 533 38,400 2,400 Climbing Jacksonville Center
12:35PM 30.6347 -81.1542 178° South 445 512 40,000 780 Climbing Jacksonville Center
12:36PM 30.5114 -81.1492 178° South 429 494 40,000  Level Jacksonville Center
12:37PM 30.3964 -81.1442 178° South 415 478 40,000 360 Level Jacksonville Center
12:38PM 30.2794 -81.1439 180° South 415 478 40,800 720 Climbing Jacksonville Center
12:39PM 30.1644 -81.1267 173° South 422 486 41,500 600 Climbing Jacksonville Center
12:40PM 30.0428 -81.0881 165° South 433 498 42,100 540 Climbing Jacksonville Center
12:41PM 29.9150 -81.0497 165° South 455 524 42,600 480 Climbing Jacksonville Center
12:42PM 29.7872 -81.0117 166° South 466 536 43,100 480 Climbing Jacksonville Center
12:43PM 29.6633 -80.9733 165° South 471 542 43,600 480 Climbing Jacksonville Center
12:44PM 29.5397 -80.9353 165° South 471 542 44,100 480 Climbing Jacksonville Center
12:45PM 29.4325 -80.9017 165° South 459 528 44,600 360 Climbing Jacksonville Center
12:46PM 29.2611 -80.8522 166° South 453 521 45,000 120 Climbing Miami Center
12:47PM 29.1414 -80.8075 162° South 448 516 45,000  Level Miami Center
12:48PM 29.0217 -80.7653 163° South 448 516 45,000  Level Miami Center
12:49PM 28.8956 -80.7206 163° South 448 516 45,000  Level Miami Center
12:50PM 28.7736 -80.6761 162° South 453 521 45,000  Level Miami Center
12:51PM 28.6558 -80.6342 163° South 453 521 45,000  Level Miami Center
12:52PM 28.5461 -80.5997 165° South 453 521 45,000  Level Miami Center
12:53PM 28.4283 -80.5556 162° South 453 521 45,000  Level Miami Center
12:54PM 28.2981 -80.5089 162° South 448 516 45,000  Level Miami Center
12:55PM 28.1822 -80.4675 163° South 448 516 45,000  Level Miami Center
12:56PM 28.0622 -80.4283 164° South 454 522 45,000  Level Miami Center
12:57PM 27.9547 -80.3897 162° South 449 517 45,000  Level Miami Center
12:58PM 27.8200 -80.3433 163° South 457 526 45,000  Level Miami Center
12:59PM 27.7000 -80.3044 164° South 457 526 45,000  Level Miami Center
01:00PM 27.5819 -80.2611 162° South 452 520 45,000  Level Miami Center
01:01PM 27.4619 -80.2200 163° South 452 520 45,000  Level Miami Center
01:02PM 27.3417 -80.1792 163° South 452 520 45,000  Level Miami Center
01:03PM 27.2214 -80.1383 163° South 453 521 45,000  Level Miami Center
01:04PM 27.1011 -80.1000 164° South 453 521 45,000  Level Miami Center
01:05PM 26.9853 -80.0547 161° South 448 516 45,000  Level Miami Center
01:06PM 26.8628 -80.0167 165° South 448 516 45,000  Level Miami Center
01:07PM 26.7511 -79.9764 162° South 456 525 45,000  Level Miami Center
01:08PM 26.6161 -79.9308 163° South 456 525 45,000  Level Miami Center
01:09PM 26.5106 -79.8956 163° South 450 518 45,000  Level Miami Center
01:10PM 26.3797 -79.8483 162° South 455 524 45,000  Level Miami Center
01:11PM 26.2594 -79.8106 164° South 455 524 45,000  Level Miami Center
01:12PM 26.1392 -79.7706 163° South 455 524 45,000  Level Miami Center
01:13PM 26.0186 -79.7283 163° South 455 524 45,000  Level Miami Center
01:14PM 25.8961 -79.6906 164° South 455 524 45,000  Level Miami Center
01:15PM 25.7739 -79.6486 163° South 455 524 45,000  Level Miami Center
01:16PM 25.6594 -79.6114 164° South 455 524 45,000  Level Miami Center
01:17PM 25.5369 -79.5717 164° South 455 524 45,000  Level Miami Center
01:18PM 25.4144 -79.5414 167° South 455 524 45,000  Level Miami Center
01:19PM 25.2936 -79.5158 169° South 450 518 45,000  Level Miami Center
01:20PM 25.1833 -79.4903 168° South 450 518 45,000  Level Miami Center
01:21PM 25.0564 -79.4647 170° South 450 518 45,000  Level Miami Center
01:22PM 24.9253 -79.4344 168° South 469 540 45,000  Level Miami Center
01:23PM 24.7942 -79.4067 169° South 474 545 45,000  Level Miami Center
01:24PM 24.6628 -79.3786 169° South 480 552 45,000  Level Miami Center
01:25PM 24.5297 -79.3486 168° South 485 558 45,000  Level Miami Center
01:26PM 24.3986 -79.3186 168° South 485 558 45,000  Level Miami Center
01:27PM 24.2653 -79.2933 170° South 485 558 45,000  Level Miami Center
01:28PM 24.1342 -79.2633 168° South 485 558 45,000  Level Miami Center
01:29PM 24.0031 -79.2336 168° South 485 558 45,000  Level Miami Center
01:31PM 23.8710 -79.1948 173° South  Level Estimated
01:38PM 23.0460 -78.9965 168° South  Level FlightAware Approximate
01:39PM 22.9282 -78.9684 168° South  Level FlightAware Approximate
01:40PM 22.8103 -78.9403 168° South  Level FlightAware Approximate
01:41PM 22.6924 -78.9123 168° South  Level FlightAware Approximate
01:42PM 22.5745 -78.8843 168° South  Level FlightAware Approximate
01:43PM 22.4877 -78.8650 173° South  Level FlightAware Approximate
01:44PM 22.3680 -78.8490 173° South  Level FlightAware Approximate
01:45PM 22.2482 -78.8330 173° South  Level FlightAware Approximate
01:46PM 22.1284 -78.8171 173° South  Level FlightAware Approximate
01:47PM 22.0087 -78.8011 173° South  Level FlightAware Approximate
01:48PM 21.8918 -78.7690 165° South  Level FlightAware Approximate
01:49PM 21.7752 -78.7357 165° South  Level FlightAware Approximate
01:50PM 21.6585 -78.7024 165° South  Level FlightAware Approximate
01:51PM 21.5418 -78.6692 165° South  Level FlightAware Approximate
01:52PM 21.4252 -78.6361 165° South  Level FlightAware Approximate
01:53PM 21.3085 -78.6030 165° South  Level FlightAware Approximate
01:54PM 21.1918 -78.5699 165° South  Level FlightAware Approximate
01:55PM 21.0751 -78.5369 165° South  Level FlightAware Approximate
01:56PM 20.9585 -78.5039 165° South  Level FlightAware Approximate
01:57PM 20.8418 -78.4710 165° South  Level FlightAware Approximate
01:58PM 20.7251 -78.4382 165° South  Level FlightAware Approximate
01:59PM 20.6084 -78.4054 165° South  Level FlightAware Approximate
02:00PM 20.4916 -78.3726 165° South  Level FlightAware Approximate
02:01PM 20.3749 -78.3399 165° South  Level FlightAware Approximate
02:02PM 20.2582 -78.3073 165° South  Level FlightAware Approximate
02:03PM 20.1415 -78.2747 165° South  Level FlightAware Approximate
02:04PM 20.0247 -78.2421 165° South  Level FlightAware Approximate
02:05PM 19.9080 -78.2095 165° South  Level FlightAware Approximate
02:06PM 19.7913 -78.1767 165° South  Level FlightAware Approximate
02:07PM 19.6747 -78.1439 165° South  Level FlightAware Approximate
02:08PM 19.5580 -78.1112 165° South  Level FlightAware Approximate
02:09PM 19.4413 -78.0785 165° South  Level FlightAware Approximate
02:10PM 19.3246 -78.0458 165° South  Level FlightAware Approximate
02:11PM 19.2080 -78.0132 165° South  Level FlightAware Approximate
02:12PM 19.0913 -77.9807 165° South  Level FlightAware Approximate
02:13PM 18.9746 -77.9482 165° South  Level FlightAware Approximate
02:14PM 18.8579 -77.9157 165° South  Level FlightAware Approximate
02:15PM 18.7411 -77.8833 165° South  Level FlightAware Approximate
02:16PM 18.6244 -77.8509 165° South  Level FlightAware Approximate
02:17PM 18.5077 -77.8186 165° South  Level FlightAware Approximate
02:18PM 18.3910 -77.7863 165° South  Level FlightAware Approximate
02:19PM 18.2743 -77.7541 165° South  Level FlightAware Approximate
02:20PM 18.1575 -77.7219 165° South  Level FlightAware Approximate
02:21PM 18.0408 -77.6897 165° South  Level FlightAware Approximate
02:22PM 17.9240 -77.6576 165° South  Level FlightAware Approximate
02:23PM 17.8073 -77.6255 165° South  Level FlightAware Approximate
02:24PM 17.6905 -77.5935 165° South  Level FlightAware Approximate
02:25PM 17.5737 -77.5615 165° South  Level FlightAware Approximate
02:26PM 17.4570 -77.5296 165° South  Level FlightAware Approximate
02:27PM 17.3402 -77.4977 165° South  Level FlightAware Approximate
02:28PM 17.2234 -77.4658 165° South  Level FlightAware Approximate
02:29PM 17.1066 -77.4340 165° South  Level FlightAware Approximate
02:30PM 16.9899 -77.4022 165° South  Level FlightAware Approximate
02:31PM 16.8731 -77.3705 165° South  Level FlightAware Approximate
02:32PM 16.7563 -77.3388 165° South  Level FlightAware Approximate
02:33PM 16.6395 -77.3071 165° South  Level FlightAware Approximate
02:34PM 16.5227 -77.2755 165° South  Level FlightAware Approximate
02:35PM 16.4058 -77.2439 165° South  Level FlightAware Approximate
02:36PM 16.2890 -77.2123 165° South  Level FlightAware Approximate
02:37PM 16.1722 -77.1808 165° South  Level FlightAware Approximate
02:38PM 16.0554 -77.1493 165° South  Level FlightAware Approximate
02:39PM 15.9385 -77.1179 165° South  Level FlightAware Approximate
02:40PM 15.8217 -77.0865 166° South  Level FlightAware Approximate
02:41PM 15.7049 -77.0551 166° South  Level FlightAware Approximate
02:42PM 15.5880 -77.0238 166° South  Level FlightAware Approximate
02:43PM 15.4712 -76.9925 166° South  Level FlightAware Approximate
02:44PM 15.3543 -76.9612 166° South  Level FlightAware Approximate
02:45PM 15.2375 -76.9300 166° South  Level FlightAware Approximate
02:46PM 15.1206 -76.8988 166° South  Level FlightAware Approximate
02:47PM 15.0037 -76.8677 166° South  Level FlightAware Approximate
02:48PM 14.8853 -76.8437 169° South  Level FlightAware Approximate
02:49PM 14.7668 -76.8200 169° South  Level FlightAware Approximate
02:50PM 14.6483 -76.7964 169° South  Level FlightAware Approximate
02:51PM 14.5298 -76.7727 169° South  Level FlightAware Approximate
02:52PM 14.4113 -76.7491 169° South  Level FlightAware Approximate
02:53PM 14.2928 -76.7255 169° South  Level FlightAware Approximate
02:54PM 14.1743 -76.7020 169° South  Level FlightAware Approximate
02:55PM 14.0558 -76.6785 169° South  Level FlightAware Approximate
02:56PM 13.9373 -76.6550 169° South  Level FlightAware Approximate
02:57PM 13.8188 -76.6315 169° South  Level FlightAware Approximate
02:58PM 13.7003 -76.6080 169° South  Level FlightAware Approximate
02:59PM 13.5818 -76.5846 169° South  Level FlightAware Approximate
03:00PM 13.4633 -76.5612 169° South  Level FlightAware Approximate
03:01PM 13.3448 -76.5378 169° South  Level FlightAware Approximate
03:02PM 13.2263 -76.5144 169° South  Level FlightAware Approximate
03:03PM 13.1077 -76.4911 169° South  Level FlightAware Approximate
03:04PM 12.9892 -76.4678 169° South  Level FlightAware Approximate
03:05PM 12.8707 -76.4445 169° South  Level FlightAware Approximate
03:06PM 12.7522 -76.4212 169° South  Level FlightAware Approximate
03:07PM 12.6336 -76.3979 169° South  Level FlightAware Approximate
03:08PM 12.5151 -76.3747 169° South  Level FlightAware Approximate
03:09PM 12.3966 -76.3515 169° South  Level FlightAware Approximate
03:10PM 12.2781 -76.3283 169° South  Level FlightAware Approximate
03:11PM 12.1595 -76.3051 169° South  Level FlightAware Approximate
03:12PM 12.0412 -76.2811 169° South  Level FlightAware Approximate
03:13PM 11.9228 -76.2570 169° South  Level FlightAware Approximate
03:14PM 11.8045 -76.2328 169° South  Level FlightAware Approximate
03:15PM 11.6861 -76.2086 169° South  Level FlightAware Approximate
03:16PM 11.5678 -76.1845 169° South  Level FlightAware Approximate
03:17PM 11.4495 -76.1604 169° South  Level FlightAware Approximate
03:18PM 11.3311 -76.1363 169° South  Level FlightAware Approximate
03:19PM 11.2128 -76.1122 169° South  Level FlightAware Approximate
03:20PM 11.0944 -76.0882 169° South  Level FlightAware Approximate
03:21PM 10.9761 -76.0641 169° South  Level FlightAware Approximate
03:22PM 10.8577 -76.0401 169° South  Level FlightAware Approximate
03:23PM 10.7394 -76.0161 169° South  Level FlightAware Approximate
03:24PM 10.6210 -75.9922 169° South  Level FlightAware Approximate
03:25PM 10.5027 -75.9682 169° South  Level FlightAware Approximate
03:26PM 10.3843 -75.9443 169° South  Level FlightAware Approximate
03:27PM 10.2659 -75.9203 169° South  Level FlightAware Approximate
03:28PM 10.1476 -75.8964 169° South  Level FlightAware Approximate
03:29PM 10.0292 -75.8726 169° South  Level FlightAware Approximate
03:30PM 9.9107 -75.8493 169° South  Level FlightAware Approximate
03:31PM 9.7922 -75.8262 169° South  Level FlightAware Approximate
03:32PM 9.6737 -75.8031 169° South  Level FlightAware Approximate
03:33PM 9.5552 -75.7800 169° South  Level FlightAware Approximate
03:34PM 9.4367 -75.7570 169° South  Level FlightAware Approximate
03:35PM 9.3181 -75.7340 169° South  Level FlightAware Approximate
03:36PM 9.1996 -75.7110 169° South  Level FlightAware Approximate
03:37PM 9.0811 -75.6880 169° South  Level FlightAware Approximate
03:38PM 8.9626 -75.6650 169° South  Level FlightAware Approximate
03:39PM 8.8441 -75.6420 169° South  Level FlightAware Approximate
03:40PM 8.7255 -75.6191 169° South  Level FlightAware Approximate
03:41PM 8.6070 -75.5961 169° South  Level FlightAware Approximate
03:42PM 8.4885 -75.5732 169° South  Level FlightAware Approximate
03:43PM 8.3699 -75.5503 169° South  Level FlightAware Approximate
03:44PM 8.2514 -75.5274 169° South  Level FlightAware Approximate
03:45PM 8.1329 -75.5045 169° South  Level FlightAware Approximate
03:46PM 8.0143 -75.4817 169° South  Level FlightAware Approximate
03:47PM 7.8958 -75.4588 169° South  Level FlightAware Approximate
03:48PM 7.7775 -75.4348 168° South  Level FlightAware Approximate
03:49PM 7.6594 -75.4100 168° South  Level FlightAware Approximate
03:50PM 7.5412 -75.3851 168° South  Level FlightAware Approximate
03:51PM 7.4231 -75.3604 168° South  Level FlightAware Approximate
03:52PM 7.3049 -75.3356 168° South  Level FlightAware Approximate
03:53PM 7.1868 -75.3108 168° South  Level FlightAware Approximate
03:54PM 7.0686 -75.2861 168° South  Level FlightAware Approximate
03:55PM 6.9505 -75.2613 168° South  Level FlightAware Approximate
03:56PM 6.8323 -75.2366 168° South  Level FlightAware Approximate
03:57PM 6.7130 -75.2185 172° South  Level FlightAware Approximate
03:58PM 6.5935 -75.2014 172° South  Level FlightAware Approximate
03:59PM 6.4751 -75.1783 169° South  Level FlightAware Approximate
04:00PM 6.3567 -75.1547 169° South  Level FlightAware Approximate
04:01PM 6.2386 -75.1301 164° South  Level FlightAware Approximate
04:02PM 6.1223 -75.0978 169° South  Level FlightAware Approximate
04:03PM 6.0039 -75.0741 169° South  Level FlightAware Approximate
04:04PM 5.8861 -75.0479 171° South  Level FlightAware Approximate
04:05PM 5.7669 -75.0295 171° South  Level FlightAware Approximate
04:06PM 5.6479 -75.0093 168° South  Level FlightAware Approximate
04:07PM 5.5297 -74.9849 168° South  Level FlightAware Approximate
04:08PM 5.4115 -74.9604 168° South  Level FlightAware Approximate
04:09PM 5.2933 -74.9360 168° South  Level FlightAware Approximate
04:10PM 5.1859 -74.8955 124° Southeast  Level FlightAware Approximate
04:11PM 5.1187 -74.7948 124° Southeast  Level FlightAware Approximate
04:12PM 5.0516 -74.6941 124° Southeast  Level FlightAware Approximate
04:13PM 4.9861 -74.5924 123° Southeast  Level FlightAware Approximate
04:14PM 4.9211 -74.4903 123° Southeast  Level FlightAware Approximate
04:15PM 4.8569 -74.3877 122° Southeast  Level FlightAware Approximate
04:16PM 4.7875 -74.2888 127° Southeast  Level FlightAware Approximate
04:17PM 4.7196 -74.1892 117° Southeast  Level FlightAware Approximate
04:18PM 4.7016 -74.1469 108° East  Level Estimated
04:19PM 4.7016 -74.1469 108° East  Level Estimated
04:20PM 4.7016 -74.1469 108° East  Level Estimated
04:21PM 4.7016 -74.1469 108° East  Level Estimated
04:22PM 4.7016 -74.1469 108° East  Level Estimated
04:23PM 4.7016 -74.1469 108° East  Level Estimated
04:24PM 4.7016 -74.1469 108° East  Level Estimated
04:25PM 4.7016 -74.1469 108° East  Level Estimated
04:26PM 4.7016 -74.1469 108° East  Level Estimated
04:27PM 4.7016 -74.1469 108° East  Level Estimated
04:28PM 4.7016 -74.1469 108° East  Level Estimated
04:29PM 4.7016 -74.1469 108° East  Level Estimated
04:30PM 4.7016 -74.1469 108° East  Level Estimated
04:31PM 4.7016 -74.1469 108° East  Level Estimated
04:32PM 4.7016 -74.1469 108° East  Level Estimated
04:33PM 4.7016 -74.1469 108° East  Level Estimated